Brockway, MT (59214)

03:11 MDT le 02 septembre 2014 (GMT -0600)
Dawson Community | Change Station
CLOSE
Current Station
Aéroport
Location: Glendive,
Altitude: 2457 ft
Stations météo à proximité

Alt. 2457 ft 47.14 °N, 104.81 °W | Updated 16 minutes ago

Clear
Ciel dégagé
52 ° F
Paraît 52 ° F
N
8
Vent Variable Vent de SSO

Aujourd'hui
Haut(e) -- | Bas -- ° F
--% Risque de précip.
Hier
Haut(e) -- | Bas -- ° F
Precip. -- pouce
6:23 AM 7:41 PM
Lune montante, 49% visible
Pression 29.85 pouce
Visibilité 10.0 Miles terrestres
Nuages Ciel dégagé
Point de rosée 46 ° F
Humidité 82%
Précipitations 0.00 pouce
Profondeur de la couche neigeuse Non disponible.
UV 0 sur 12
Pollen 8.40 sur 12
Qualité de l'air Non disponible.
Flu Activity Non disponible.
METAR KGDV 020855Z AUTO 20007KT 10SM CLR 11/08 A2985 RMK AO1 57007

More Conditions Fewer Conditions

Pression 29.85 pouce
Visibilité 10.0 Miles terrestres
Nuages Ciel dégagé
Point de rosée 46 ° F
Humidité 82%
Précipitations 0.00 pouce
Profondeur de la couche neigeuse Non disponible.
UV 0 sur 12
Pollen 8.40 sur 12
Qualité de l'air Non disponible.
Flu Activity Non disponible.
METAR KGDV 020855Z AUTO 20007KT 10SM CLR 11/08 A2985 RMK AO1 57007

More Conditions Fewer Conditions

10-Day Weather Forecast

Almanac

Astronomie

Sep. 02, 2014 Lever Coucher
Temps réel 06:23 MDT 19:41 MDT
Crépuscule civil 05:52 MDT 20:12 MDT
Crépuscule nautique 05:14 MDT 20:50 MDT
Crépuscule astronomique 04:33 MDT 21:31 MDT
Lune 14:39 MDT Pas de coucher de lune
Durée de lumière visible 14h 20m
Longueur du jour
13h 17m
Tomorrow will be 3m 17s shorter.
Lune montante, 49% of the Moon is Illuminated
Aujourd'hui
Lune montante
Sep 2
Premier quartier
Sep 8
Pleine lune
Sep 15
Dernier quartier
Sep 24
Nouveau

Extrêmes aujourd'hui

State Highs State Lows

Community

WunderPhotos

Upload Photos

1,749,587 Photos téléchargées !

WunderBlogs® & News

Nearby

Épaisseur de neige

Station Depth Altitude
Crystal Lake 0 in 6050 ft
Rocky Boy 0 in 4700 ft
Daisy Peak 0 in 7600 ft
Cole Creek 0 in 7850 ft
Burnt Mountain 0 in 5880 ft

Activité sismique

Ville Distance Mag. Time & Date
No recent earthquake activity has been reported nearby.
Minimum magnitude displayed is 2.5.

Températures des eaux côtières

Lieu Température
Aucun rapport de station

Stations météo à proximité